chillman123 Speed Test Results

        Days  
chillman123 chillman123
Share Query AVG Img MAX Img AVG bbc MAX bbc iFrame
  
 
Showing results 1 to 25 of 3200 for Username chillman123 arrow up Only Upload    arrow down Only Download   
Time arrow down ct    arrow up arrow down   Size    Speed ConnectID Provider TID
Mon Mar 20 2017 @ 12:58:55 am Sydney, AU US arrow 18.9 MB 21.08 Mbps 2.64 MB/s14502134615420Cadence Design historySacqGsRFnshare history
Mon Mar 20 2017 @ 12:58:16 am Sydney, AU US arrow 153 MB 55.73 Mbps 6.97 MB/s14502134615420Cadence Design historymWscE1g2oshare history
Mon Mar 20 2017 @ 12:27:42 am Sydney, AU US arrow 11.5 MB 20.16 Mbps 2.52 MB/s14502134615420Cadence Design historyUEPNK2p1Lshare history
Mon Mar 20 2017 @ 12:27:15 am Sydney, AU US arrow 91.9 MB 35.06 Mbps 4.38 MB/s14502134615420Cadence Design historywv8aqpV4rshare history
Sun Mar 19 2017 @ 11:56:43 pm Sydney, AU AU arrow 6.3 MB 13.1 Mbps 1.64 MB/s1926719922520Aapt Limited history3PZatfXHhshare history
Sun Mar 19 2017 @ 11:56:33 pm Sydney, AU AU arrow 37.5 MB 51.69 Mbps 6.46 MB/s1926719922520Aapt Limited historyvqGY2zNthshare history
Sun Mar 19 2017 @ 11:26:11 pm Sydney, AU AU arrow 11.1 MB 16.85 Mbps 2.11 MB/s1926719922520Aapt Limited historyPFi6dzT7tshare history
Sun Mar 19 2017 @ 11:25:58 pm Sydney, AU US arrow 152 MB 44.13 Mbps 5.52 MB/s14502134615420Cadence Design history7Ccf3rgzJshare history
Sun Mar 19 2017 @ 10:55:55 pm Sydney, AU AU arrow 18.5 MB 20.98 Mbps 2.62 MB/s1926719922520Aapt Limited historyufDzaqiHoshare history
Sun Mar 19 2017 @ 10:55:34 pm Sydney, AU AU arrow 123 MB 53.14 Mbps 6.64 MB/s1926719922520Aapt Limited historyQjv6Ra9Vkshare history
Sun Mar 19 2017 @ 10:26:03 pm Sydney, AU US arrow 19 MB 23.11 Mbps 2.89 MB/s14502134615420Cadence Design historyMiwsWTkRjshare history
Sun Mar 19 2017 @ 10:25:26 pm Sydney, AU US arrow 124 MB 57.47 Mbps 7.18 MB/s14502134615420Cadence Design historyjwCUMapKVshare history
Sun Mar 19 2017 @ 9:55:02 pm Sydney, AU US arrow 18.5 MB 21.86 Mbps 2.73 MB/s14502134615420Cadence Design historyprAfRF9Dtshare history
Sun Mar 19 2017 @ 9:54:24 pm Sydney, AU US arrow 129 MB 52.49 Mbps 6.56 MB/s14502134615420Cadence Design historyos0Te2A8Sshare history
Sun Mar 19 2017 @ 9:24:19 pm Sydney, AU AU arrow 19.1 MB 19.82 Mbps 2.48 MB/s1926719922520Aapt Limited historyz4Cpr9IPtshare history
Sun Mar 19 2017 @ 9:23:58 pm Sydney, AU AU arrow 131 MB 60.03 Mbps 7.5 MB/s1926719922520Aapt Limited historyPMwdo3ArFshare history
Sun Mar 19 2017 @ 8:53:27 pm Sydney, AU AU arrow 3.9 MB 8.75 Mbps 1.09 MB/s1926719922520Aapt Limited historyjnKuTdXbishare history
Sun Mar 19 2017 @ 8:53:21 pm Sydney, AU AU arrow 151 MB 81.17 Mbps 10.15 MB/s1926719922520Aapt Limited historyGF7Rutg6zshare history
Sun Mar 19 2017 @ 8:23:06 pm Sydney, AU AU arrow 18.9 MB 20.36 Mbps 2.54 MB/s1926719922520Aapt Limited history4qdZAbwGOshare history
Sun Mar 19 2017 @ 8:22:45 pm Sydney, AU AU arrow 158 MB 93.86 Mbps 11.73 MB/s1926719922520Aapt Limited history8Gm9RUJSWshare history
Sun Mar 19 2017 @ 7:52:54 pm Sydney, AU AU arrow 19 MB 20.56 Mbps 2.57 MB/s1926719922520Aapt Limited historyqfop4mlb0share history
Sun Mar 19 2017 @ 7:52:33 pm Sydney, AU AU arrow 151 MB 88.48 Mbps 11.06 MB/s1926719922520Aapt Limited historyxp219GRAMshare history
Sun Mar 19 2017 @ 7:22:31 pm Sydney, AU AU arrow 11.5 MB 16.18 Mbps 2.02 MB/s1926719922520Aapt Limited historyqUJzmA1GEshare history
Sun Mar 19 2017 @ 7:22:17 pm Sydney, AU AU arrow 156 MB 62.4 Mbps 7.8 MB/s1926719922520Aapt Limited historyaZVtB15v4share history
Sun Mar 19 2017 @ 6:52:48 pm Sydney, AU US arrow 11.4 MB 18.54 Mbps 2.32 MB/s14502134615420Cadence Design history9FOkVh8B1share history
  
Displaying Internet Speed Test results for Username chillman123
Speed Test Version 15.9
© 2017 TestMy Net LLC - TestMy.net - Terms & Privacy - Mobile